sensor_id;sensor_type;location;lat;lon;timestamp;temperature;humidity
25550;DHT22;13444;50.562;7.262;2022-09-14T00:00:49;19.60;99.90
25550;DHT22;13444;50.562;7.262;2022-09-14T00:03:15;19.60;99.90
25550;DHT22;13444;50.562;7.262;2022-09-14T00:05:40;19.70;99.90
25550;DHT22;13444;50.562;7.262;2022-09-14T00:08:06;19.70;99.90
25550;DHT22;13444;50.562;7.262;2022-09-14T00:10:32;19.60;99.90
25550;DHT22;13444;50.562;7.262;2022-09-14T00:12:57;19.70;99.90
25550;DHT22;13444;50.562;7.262;2022-09-14T00:15:25;19.60;99.90
25550;DHT22;13444;50.562;7.262;2022-09-14T00:17:50;19.60;99.90
25550;DHT22;13444;50.562;7.262;2022-09-14T00:20:16;19.60;99.90
25550;DHT22;13444;50.562;7.262;2022-09-14T00:22:41;19.60;99.90
25550;DHT22;13444;50.562;7.262;2022-09-14T00:25:07;19.60;99.90
25550;DHT22;13444;50.562;7.262;2022-09-14T00:27:33;19.60;99.90
25550;DHT22;13444;50.562;7.262;2022-09-14T00:29:59;19.60;99.90
25550;DHT22;13444;50.562;7.262;2022-09-14T00:32:24;19.60;99.90
25550;DHT22;13444;50.562;7.262;2022-09-14T00:34:50;19.60;99.90
25550;DHT22;13444;50.562;7.262;2022-09-14T00:37:15;19.60;99.90
25550;DHT22;13444;50.562;7.262;2022-09-14T00:39:41;19.50;99.90
25550;DHT22;13444;50.562;7.262;2022-09-14T00:42:06;19.60;99.90
25550;DHT22;13444;50.562;7.262;2022-09-14T00:47:00;19.50;99.90
25550;DHT22;13444;50.562;7.262;2022-09-14T00:54:43;19.50;99.90
25550;DHT22;13444;50.562;7.262;2022-09-14T00:57:10;19.40;99.90
25550;DHT22;13444;50.562;7.262;2022-09-14T00:59:37;19.40;99.90
25550;DHT22;13444;50.562;7.262;2022-09-14T01:02:04;19.40;99.90
25550;DHT22;13444;50.562;7.262;2022-09-14T01:04:31;19.30;99.90
25550;DHT22;13444;50.562;7.262;2022-09-14T01:10:18;19.20;99.90
25550;DHT22;13444;50.562;7.262;2022-09-14T01:13:03;19.20;99.90
25550;DHT22;13444;50.562;7.262;2022-09-14T01:15:44;19.20;99.90
25550;DHT22;13444;50.562;7.262;2022-09-14T01:18:30;19.10;99.90
25550;DHT22;13444;50.562;7.262;2022-09-14T01:21:04;19.20;99.90
25550;DHT22;13444;50.562;7.262;2022-09-14T01:23:49;19.10;99.90
25550;DHT22;13444;50.562;7.262;2022-09-14T01:26:35;19.10;99.90
25550;DHT22;13444;50.562;7.262;2022-09-14T01:29:19;19.00;99.90
25550;DHT22;13444;50.562;7.262;2022-09-14T01:32:01;19.00;99.90
25550;DHT22;13444;50.562;7.262;2022-09-14T01:34:48;19.00;99.90
25550;DHT22;13444;50.562;7.262;2022-09-14T01:37:24;19.00;99.90
25550;DHT22;13444;50.562;7.262;2022-09-14T01:40:01;19.10;99.90
25550;DHT22;13444;50.562;7.262;2022-09-14T01:42:28;19.10;99.90
25550;DHT22;13444;50.562;7.262;2022-09-14T01:44:59;19.20;99.90
25550;DHT22;13444;50.562;7.262;2022-09-14T01:47:31;19.20;99.90
25550;DHT22;13444;50.562;7.262;2022-09-14T01:50:13;19.20;99.90
25550;DHT22;13444;50.562;7.262;2022-09-14T01:52:54;19.20;99.90
25550;DHT22;13444;50.562;7.262;2022-09-14T01:55:32;19.20;99.90
25550;DHT22;13444;50.562;7.262;2022-09-14T01:58:06;19.20;99.90
25550;DHT22;13444;50.562;7.262;2022-09-14T02:00:33;19.20;99.90
25550;DHT22;13444;50.562;7.262;2022-09-14T02:03:09;19.20;99.90
25550;DHT22;13444;50.562;7.262;2022-09-14T02:08:17;19.10;99.90
25550;DHT22;13444;50.562;7.262;2022-09-14T02:10:43;19.10;99.90
25550;DHT22;13444;50.562;7.262;2022-09-14T02:13:08;19.10;99.90
25550;DHT22;13444;50.562;7.262;2022-09-14T02:15:35;19.00;99.90
25550;DHT22;13444;50.562;7.262;2022-09-14T02:18:02;19.00;99.90
25550;DHT22;13444;50.562;7.262;2022-09-14T02:20:34;19.00;99.90
25550;DHT22;13444;50.562;7.262;2022-09-14T02:23:02;19.00;99.90
25550;DHT22;13444;50.562;7.262;2022-09-14T02:25:27;19.00;99.90
25550;DHT22;13444;50.562;7.262;2022-09-14T02:27:53;19.10;99.90
25550;DHT22;13444;50.562;7.262;2022-09-14T02:30:18;19.10;99.90
25550;DHT22;13444;50.562;7.262;2022-09-14T02:35:34;19.10;99.90
25550;DHT22;13444;50.562;7.262;2022-09-14T02:38:20;19.00;99.90
25550;DHT22;13444;50.562;7.262;2022-09-14T02:40:56;19.10;99.90
25550;DHT22;13444;50.562;7.262;2022-09-14T02:46:37;19.00;99.90
25550;DHT22;13444;50.562;7.262;2022-09-14T02:52:05;19.10;99.90
25550;DHT22;13444;50.562;7.262;2022-09-14T02:55:09;19.10;99.90
25550;DHT22;13444;50.562;7.262;2022-09-14T02:58:03;19.10;99.90
25550;DHT22;13444;50.562;7.262;2022-09-14T03:00:30;19.10;99.90
25550;DHT22;13444;50.562;7.262;2022-09-14T03:02:57;19.10;99.90
25550;DHT22;13444;50.562;7.262;2022-09-14T03:05:22;19.00;99.90
25550;DHT22;13444;50.562;7.262;2022-09-14T03:07:48;19.00;99.90
25550;DHT22;13444;50.562;7.262;2022-09-14T03:10:14;19.00;99.90
25550;DHT22;13444;50.562;7.262;2022-09-14T03:12:39;19.00;99.90
25550;DHT22;13444;50.562;7.262;2022-09-14T03:15:06;18.90;99.90
25550;DHT22;13444;50.562;7.262;2022-09-14T03:17:31;19.00;99.90
25550;DHT22;13444;50.562;7.262;2022-09-14T03:19:57;19.00;99.90
25550;DHT22;13444;50.562;7.262;2022-09-14T03:22:22;19.00;99.90
25550;DHT22;13444;50.562;7.262;2022-09-14T03:24:48;19.00;99.90
25550;DHT22;13444;50.562;7.262;2022-09-14T03:27:13;19.00;99.90
25550;DHT22;13444;50.562;7.262;2022-09-14T03:29:39;19.00;99.90
25550;DHT22;13444;50.562;7.262;2022-09-14T03:32:04;18.90;99.90
25550;DHT22;13444;50.562;7.262;2022-09-14T03:34:30;18.90;99.90
25550;DHT22;13444;50.562;7.262;2022-09-14T03:36:55;18.90;99.90
25550;DHT22;13444;50.562;7.262;2022-09-14T03:39:21;18.90;99.90
25550;DHT22;13444;50.562;7.262;2022-09-14T03:41:47;18.90;99.90
25550;DHT22;13444;50.562;7.262;2022-09-14T03:44:12;18.90;99.90
25550;DHT22;13444;50.562;7.262;2022-09-14T03:46:38;18.80;99.90
25550;DHT22;13444;50.562;7.262;2022-09-14T03:49:03;18.80;99.90
25550;DHT22;13444;50.562;7.262;2022-09-14T03:51:30;18.80;99.90
25550;DHT22;13444;50.562;7.262;2022-09-14T03:53:55;18.80;99.90
25550;DHT22;13444;50.562;7.262;2022-09-14T03:56:21;18.80;99.90
25550;DHT22;13444;50.562;7.262;2022-09-14T03:58:48;18.80;99.90
25550;DHT22;13444;50.562;7.262;2022-09-14T04:01:16;18.80;99.90
25550;DHT22;13444;50.562;7.262;2022-09-14T04:03:43;18.80;99.90
25550;DHT22;13444;50.562;7.262;2022-09-14T04:06:09;18.80;99.90
25550;DHT22;13444;50.562;7.262;2022-09-14T04:08:36;18.80;99.90
25550;DHT22;13444;50.562;7.262;2022-09-14T04:11:29;18.80;99.90
25550;DHT22;13444;50.562;7.262;2022-09-14T04:14:00;18.80;99.90
25550;DHT22;13444;50.562;7.262;2022-09-14T04:16:26;18.80;99.90
25550;DHT22;13444;50.562;7.262;2022-09-14T04:18:52;18.90;99.90
25550;DHT22;13444;50.562;7.262;2022-09-14T04:21:20;18.90;99.90
25550;DHT22;13444;50.562;7.262;2022-09-14T04:23:46;18.90;99.90
25550;DHT22;13444;50.562;7.262;2022-09-14T04:26:17;18.90;99.90
25550;DHT22;13444;50.562;7.262;2022-09-14T04:28:43;18.90;99.90
25550;DHT22;13444;50.562;7.262;2022-09-14T04:31:10;18.90;99.90
25550;DHT22;13444;50.562;7.262;2022-09-14T04:33:38;18.90;99.90
25550;DHT22;13444;50.562;7.262;2022-09-14T04:36:06;18.90;99.90
25550;DHT22;13444;50.562;7.262;2022-09-14T04:38:33;18.90;99.90
25550;DHT22;13444;50.562;7.262;2022-09-14T04:40:58;19.00;99.90
25550;DHT22;13444;50.562;7.262;2022-09-14T04:43:25;19.00;99.90
25550;DHT22;13444;50.562;7.262;2022-09-14T04:45:51;19.00;99.90
25550;DHT22;13444;50.562;7.262;2022-09-14T04:48:18;19.00;99.90
25550;DHT22;13444;50.562;7.262;2022-09-14T04:50:44;18.90;99.90
25550;DHT22;13444;50.562;7.262;2022-09-14T04:53:13;19.00;99.90
25550;DHT22;13444;50.562;7.262;2022-09-14T04:55:41;19.00;99.90
25550;DHT22;13444;50.562;7.262;2022-09-14T04:58:07;18.90;99.90
25550;DHT22;13444;50.562;7.262;2022-09-14T05:00:33;19.00;99.90
25550;DHT22;13444;50.562;7.262;2022-09-14T05:03:00;19.00;99.90
25550;DHT22;13444;50.562;7.262;2022-09-14T05:05:26;19.00;99.90
25550;DHT22;13444;50.562;7.262;2022-09-14T05:07:51;19.00;99.90
25550;DHT22;13444;50.562;7.262;2022-09-14T05:10:17;19.00;99.90
25550;DHT22;13444;50.562;7.262;2022-09-14T05:12:43;19.00;99.90
25550;DHT22;13444;50.562;7.262;2022-09-14T05:15:09;19.00;99.90
25550;DHT22;13444;50.562;7.262;2022-09-14T05:17:35;19.00;99.90
25550;DHT22;13444;50.562;7.262;2022-09-14T05:20:00;19.00;99.90
25550;DHT22;13444;50.562;7.262;2022-09-14T05:22:26;19.00;99.90
25550;DHT22;13444;50.562;7.262;2022-09-14T05:24:52;19.00;99.90
25550;DHT22;13444;50.562;7.262;2022-09-14T05:27:17;19.00;99.90
25550;DHT22;13444;50.562;7.262;2022-09-14T05:29:43;19.00;99.90
25550;DHT22;13444;50.562;7.262;2022-09-14T05:32:08;19.00;99.90
25550;DHT22;13444;50.562;7.262;2022-09-14T05:34:34;18.90;99.90
25550;DHT22;13444;50.562;7.262;2022-09-14T05:36:59;19.00;99.90
25550;DHT22;13444;50.562;7.262;2022-09-14T05:39:25;19.00;99.90
25550;DHT22;13444;50.562;7.262;2022-09-14T05:41:50;18.90;99.90
25550;DHT22;13444;50.562;7.262;2022-09-14T05:44:16;19.00;99.90
25550;DHT22;13444;50.562;7.262;2022-09-14T05:46:42;19.00;99.90
25550;DHT22;13444;50.562;7.262;2022-09-14T05:49:07;19.00;99.90
25550;DHT22;13444;50.562;7.262;2022-09-14T05:51:33;19.00;99.90
25550;DHT22;13444;50.562;7.262;2022-09-14T05:53:58;19.00;99.90
25550;DHT22;13444;50.562;7.262;2022-09-14T05:56:27;19.00;99.90
25550;DHT22;13444;50.562;7.262;2022-09-14T05:58:53;19.00;99.90
25550;DHT22;13444;50.562;7.262;2022-09-14T06:01:24;19.00;99.90
25550;DHT22;13444;50.562;7.262;2022-09-14T06:03:53;19.00;99.90
25550;DHT22;13444;50.562;7.262;2022-09-14T06:06:19;19.00;99.90
25550;DHT22;13444;50.562;7.262;2022-09-14T06:08:47;19.10;99.90
25550;DHT22;13444;50.562;7.262;2022-09-14T06:11:16;19.10;99.90
25550;DHT22;13444;50.562;7.262;2022-09-14T06:13:42;19.10;99.90
25550;DHT22;13444;50.562;7.262;2022-09-14T06:16:11;19.10;99.90
25550;DHT22;13444;50.562;7.262;2022-09-14T06:18:37;19.10;99.90
25550;DHT22;13444;50.562;7.262;2022-09-14T06:21:04;19.10;99.90
25550;DHT22;13444;50.562;7.262;2022-09-14T06:23:31;19.20;99.90
25550;DHT22;13444;50.562;7.262;2022-09-14T06:25:58;19.20;99.90
25550;DHT22;13444;50.562;7.262;2022-09-14T06:28:25;19.30;99.90
25550;DHT22;13444;50.562;7.262;2022-09-14T06:30:51;19.30;99.90
25550;DHT22;13444;50.562;7.262;2022-09-14T06:33:17;19.30;99.90
25550;DHT22;13444;50.562;7.262;2022-09-14T06:35:53;19.40;99.90
25550;DHT22;13444;50.562;7.262;2022-09-14T06:38:19;19.40;99.90
25550;DHT22;13444;50.562;7.262;2022-09-14T06:40:56;19.40;99.90
25550;DHT22;13444;50.562;7.262;2022-09-14T06:43:23;19.40;99.90
25550;DHT22;13444;50.562;7.262;2022-09-14T06:46:03;19.30;99.90
25550;DHT22;13444;50.562;7.262;2022-09-14T06:48:43;19.40;99.90
25550;DHT22;13444;50.562;7.262;2022-09-14T06:51:15;19.40;99.90
25550;DHT22;13444;50.562;7.262;2022-09-14T06:53:42;19.40;99.90
25550;DHT22;13444;50.562;7.262;2022-09-14T06:56:08;19.40;99.90
25550;DHT22;13444;50.562;7.262;2022-09-14T06:58:34;19.50;99.90
25550;DHT22;13444;50.562;7.262;2022-09-14T07:01:04;19.50;99.90
25550;DHT22;13444;50.562;7.262;2022-09-14T07:03:30;19.50;99.90
25550;DHT22;13444;50.562;7.262;2022-09-14T07:06:20;19.50;99.90
25550;DHT22;13444;50.562;7.262;2022-09-14T07:08:48;19.70;99.90
25550;DHT22;13444;50.562;7.262;2022-09-14T07:11:15;19.70;99.90
25550;DHT22;13444;50.562;7.262;2022-09-14T07:13:41;19.80;99.90
25550;DHT22;13444;50.562;7.262;2022-09-14T07:16:07;19.80;99.90
25550;DHT22;13444;50.562;7.262;2022-09-14T07:18:33;19.90;99.90
25550;DHT22;13444;50.562;7.262;2022-09-14T07:21:14;19.90;99.90
25550;DHT22;13444;50.562;7.262;2022-09-14T07:23:41;20.00;99.90
25550;DHT22;13444;50.562;7.262;2022-09-14T07:26:08;20.00;99.90
25550;DHT22;13444;50.562;7.262;2022-09-14T07:28:35;20.10;99.90
25550;DHT22;13444;50.562;7.262;2022-09-14T07:31:02;20.10;99.90
25550;DHT22;13444;50.562;7.262;2022-09-14T07:33:28;20.00;99.90
25550;DHT22;13444;50.562;7.262;2022-09-14T07:35:54;20.00;99.90
25550;DHT22;13444;50.562;7.262;2022-09-14T07:38:28;20.00;99.90
25550;DHT22;13444;50.562;7.262;2022-09-14T07:40:57;20.00;99.90
25550;DHT22;13444;50.562;7.262;2022-09-14T07:43:22;20.00;99.90
25550;DHT22;13444;50.562;7.262;2022-09-14T07:45:48;20.00;99.90
25550;DHT22;13444;50.562;7.262;2022-09-14T07:48:13;20.10;99.90
25550;DHT22;13444;50.562;7.262;2022-09-14T07:50:39;20.00;99.90
25550;DHT22;13444;50.562;7.262;2022-09-14T07:53:05;20.00;99.90
25550;DHT22;13444;50.562;7.262;2022-09-14T07:55:30;20.00;99.90
25550;DHT22;13444;50.562;7.262;2022-09-14T07:57:57;20.00;99.90
25550;DHT22;13444;50.562;7.262;2022-09-14T08:00:23;20.00;99.90
25550;DHT22;13444;50.562;7.262;2022-09-14T08:02:53;20.00;99.90
25550;DHT22;13444;50.562;7.262;2022-09-14T08:05:20;20.00;99.90
25550;DHT22;13444;50.562;7.262;2022-09-14T08:07:45;20.00;99.90
25550;DHT22;13444;50.562;7.262;2022-09-14T08:10:11;20.10;99.90
25550;DHT22;13444;50.562;7.262;2022-09-14T08:12:36;20.00;99.90
25550;DHT22;13444;50.562;7.262;2022-09-14T08:15:03;19.90;99.90
25550;DHT22;13444;50.562;7.262;2022-09-14T08:17:29;19.90;99.90
25550;DHT22;13444;50.562;7.262;2022-09-14T08:19:54;19.80;99.90
25550;DHT22;13444;50.562;7.262;2022-09-14T08:22:20;19.90;99.90
25550;DHT22;13444;50.562;7.262;2022-09-14T08:24:46;19.90;99.90
25550;DHT22;13444;50.562;7.262;2022-09-14T08:27:12;19.90;99.90
25550;DHT22;13444;50.562;7.262;2022-09-14T08:29:37;20.00;99.90
25550;DHT22;13444;50.562;7.262;2022-09-14T08:32:04;20.00;99.90
25550;DHT22;13444;50.562;7.262;2022-09-14T08:34:29;20.10;99.90
25550;DHT22;13444;50.562;7.262;2022-09-14T08:36:55;20.00;99.90
25550;DHT22;13444;50.562;7.262;2022-09-14T08:39:20;20.00;99.90
25550;DHT22;13444;50.562;7.262;2022-09-14T08:41:55;20.10;99.90
25550;DHT22;13444;50.562;7.262;2022-09-14T08:47:10;20.10;99.90
25550;DHT22;13444;50.562;7.262;2022-09-14T08:50:00;19.90;99.90
25550;DHT22;13444;50.562;7.262;2022-09-14T08:52:31;19.80;99.90
25550;DHT22;13444;50.562;7.262;2022-09-14T08:58:02;19.70;99.90
25550;DHT22;13444;50.562;7.262;2022-09-14T09:00:41;19.70;99.90
25550;DHT22;13444;50.562;7.262;2022-09-14T09:06:28;19.80;99.90
25550;DHT22;13444;50.562;7.262;2022-09-14T09:08:57;19.90;99.90
25550;DHT22;13444;50.562;7.262;2022-09-14T09:11:28;19.90;99.90
25550;DHT22;13444;50.562;7.262;2022-09-14T09:13:59;20.00;99.90
25550;DHT22;13444;50.562;7.262;2022-09-14T09:16:26;20.10;99.90
25550;DHT22;13444;50.562;7.262;2022-09-14T09:19:03;20.10;99.90
25550;DHT22;13444;50.562;7.262;2022-09-14T09:21:42;20.10;99.90
25550;DHT22;13444;50.562;7.262;2022-09-14T09:24:33;20.10;99.90
25550;DHT22;13444;50.562;7.262;2022-09-14T09:27:00;20.10;99.90
25550;DHT22;13444;50.562;7.262;2022-09-14T09:29:26;20.10;99.90
25550;DHT22;13444;50.562;7.262;2022-09-14T09:31:54;20.10;99.90
25550;DHT22;13444;50.562;7.262;2022-09-14T09:34:29;20.20;99.90
25550;DHT22;13444;50.562;7.262;2022-09-14T09:36:55;20.30;99.90
25550;DHT22;13444;50.562;7.262;2022-09-14T09:39:24;20.40;99.90
25550;DHT22;13444;50.562;7.262;2022-09-14T09:42:06;20.40;99.90
25550;DHT22;13444;50.562;7.262;2022-09-14T09:44:57;20.40;99.90
25550;DHT22;13444;50.562;7.262;2022-09-14T09:47:37;20.40;99.90
25550;DHT22;13444;50.562;7.262;2022-09-14T09:52:51;20.50;99.90
25550;DHT22;13444;50.562;7.262;2022-09-14T09:55:18;20.60;99.90
25550;DHT22;13444;50.562;7.262;2022-09-14T09:57:44;20.60;99.90
25550;DHT22;13444;50.562;7.262;2022-09-14T10:00:20;20.70;99.90
25550;DHT22;13444;50.562;7.262;2022-09-14T10:02:46;20.70;99.90
25550;DHT22;13444;50.562;7.262;2022-09-14T10:07:51;20.80;99.90
25550;DHT22;13444;50.562;7.262;2022-09-14T10:10:38;20.90;99.90
25550;DHT22;13444;50.562;7.262;2022-09-14T10:13:13;20.90;99.90
25550;DHT22;13444;50.562;7.262;2022-09-14T10:15:40;20.90;99.90
25550;DHT22;13444;50.562;7.262;2022-09-14T10:18:17;20.80;99.90
25550;DHT22;13444;50.562;7.262;2022-09-14T10:21:06;20.80;99.90
25550;DHT22;13444;50.562;7.262;2022-09-14T10:23:37;20.80;99.90
25550;DHT22;13444;50.562;7.262;2022-09-14T10:28:40;21.00;99.90
25550;DHT22;13444;50.562;7.262;2022-09-14T10:33:37;21.10;99.90
25550;DHT22;13444;50.562;7.262;2022-09-14T10:39:01;21.20;99.90
25550;DHT22;13444;50.562;7.262;2022-09-14T10:53:09;21.00;99.90
25550;DHT22;13444;50.562;7.262;2022-09-14T11:04:04;20.70;99.90
25550;DHT22;13444;50.562;7.262;2022-09-14T11:06:50;20.70;99.90
25550;DHT22;13444;50.562;7.262;2022-09-14T11:09:21;20.70;99.90
25550;DHT22;13444;50.562;7.262;2022-09-14T11:14:33;20.70;99.90
25550;DHT22;13444;50.562;7.262;2022-09-14T11:17:23;20.60;99.90
25550;DHT22;13444;50.562;7.262;2022-09-14T11:20:01;20.60;99.90
25550;DHT22;13444;50.562;7.262;2022-09-14T11:22:40;20.60;99.90
25550;DHT22;13444;50.562;7.262;2022-09-14T11:27:37;20.60;99.90
25550;DHT22;13444;50.562;7.262;2022-09-14T11:30:13;20.60;99.90
25550;DHT22;13444;50.562;7.262;2022-09-14T11:35:21;20.50;99.90
25550;DHT22;13444;50.562;7.262;2022-09-14T11:37:57;20.60;99.90
25550;DHT22;13444;50.562;7.262;2022-09-14T11:40:38;20.60;99.90
25550;DHT22;13444;50.562;7.262;2022-09-14T11:43:25;20.70;99.90
25550;DHT22;13444;50.562;7.262;2022-09-14T11:45:55;20.80;99.90
25550;DHT22;13444;50.562;7.262;2022-09-14T11:48:52;20.70;99.90
25550;DHT22;13444;50.562;7.262;2022-09-14T11:51:23;20.70;99.90
25550;DHT22;13444;50.562;7.262;2022-09-14T11:53:49;20.80;99.90
25550;DHT22;13444;50.562;7.262;2022-09-14T11:56:30;20.80;99.90
25550;DHT22;13444;50.562;7.262;2022-09-14T11:59:03;20.80;99.90
25550;DHT22;13444;50.562;7.262;2022-09-14T12:01:37;20.90;99.90
25550;DHT22;13444;50.562;7.262;2022-09-14T12:04:15;20.90;99.90
25550;DHT22;13444;50.562;7.262;2022-09-14T12:11:48;21.30;99.90
25550;DHT22;13444;50.562;7.262;2022-09-14T12:17:27;21.50;99.90
25550;DHT22;13444;50.562;7.262;2022-09-14T12:19:58;21.60;99.90
25550;DHT22;13444;50.562;7.262;2022-09-14T12:22:42;21.60;99.90
25550;DHT22;13444;50.562;7.262;2022-09-14T12:27:39;21.80;99.90
25550;DHT22;13444;50.562;7.262;2022-09-14T12:32:59;22.00;99.90
25550;DHT22;13444;50.562;7.262;2022-09-14T12:41:02;22.20;99.90
25550;DHT22;13444;50.562;7.262;2022-09-14T12:51:26;22.30;99.90
25550;DHT22;13444;50.562;7.262;2022-09-14T12:59:32;22.30;99.90
25550;DHT22;13444;50.562;7.262;2022-09-14T13:05:10;22.30;99.90
25550;DHT22;13444;50.562;7.262;2022-09-14T13:07:38;22.30;99.90
25550;DHT22;13444;50.562;7.262;2022-09-14T13:10:05;22.30;99.90
25550;DHT22;13444;50.562;7.262;2022-09-14T13:12:42;22.20;99.90
25550;DHT22;13444;50.562;7.262;2022-09-14T13:15:23;22.20;99.90
25550;DHT22;13444;50.562;7.262;2022-09-14T13:20:22;22.10;99.90
25550;DHT22;13444;50.562;7.262;2022-09-14T13:22:47;21.90;99.90
25550;DHT22;13444;50.562;7.262;2022-09-14T13:25:32;21.90;99.90
25550;DHT22;13444;50.562;7.262;2022-09-14T13:28:00;21.90;99.90
25550;DHT22;13444;50.562;7.262;2022-09-14T13:30:27;21.80;99.90
25550;DHT22;13444;50.562;7.262;2022-09-14T13:32:54;21.80;99.90
25550;DHT22;13444;50.562;7.262;2022-09-14T13:35:49;21.80;99.90
25550;DHT22;13444;50.562;7.262;2022-09-14T13:38:24;21.70;99.90
25550;DHT22;13444;50.562;7.262;2022-09-14T13:40:53;21.70;99.90
25550;DHT22;13444;50.562;7.262;2022-09-14T13:43:20;21.70;99.90
25550;DHT22;13444;50.562;7.262;2022-09-14T13:45:48;21.70;99.90
25550;DHT22;13444;50.562;7.262;2022-09-14T13:48:15;21.70;99.90
25550;DHT22;13444;50.562;7.262;2022-09-14T13:50:47;21.70;99.90
25550;DHT22;13444;50.562;7.262;2022-09-14T13:56:24;21.70;99.90
25550;DHT22;13444;50.562;7.262;2022-09-14T14:04:24;21.70;99.90
25550;DHT22;13444;50.562;7.262;2022-09-14T14:09:57;21.60;99.90
25550;DHT22;13444;50.562;7.262;2022-09-14T14:12:33;21.70;99.90
25550;DHT22;13444;50.562;7.262;2022-09-14T14:17:37;21.60;99.90
25550;DHT22;13444;50.562;7.262;2022-09-14T14:23:20;21.50;99.90
25550;DHT22;13444;50.562;7.262;2022-09-14T14:25:52;21.40;99.90
25550;DHT22;13444;50.562;7.262;2022-09-14T14:28:27;21.40;99.90
25550;DHT22;13444;50.562;7.262;2022-09-14T14:30:55;21.20;99.90
25550;DHT22;13444;50.562;7.262;2022-09-14T14:33:21;21.20;99.90
25550;DHT22;13444;50.562;7.262;2022-09-14T14:35:48;21.10;99.90
25550;DHT22;13444;50.562;7.262;2022-09-14T14:38:15;21.00;99.90
25550;DHT22;13444;50.562;7.262;2022-09-14T14:40:41;21.10;99.90
25550;DHT22;13444;50.562;7.262;2022-09-14T14:43:12;21.10;99.90
25550;DHT22;13444;50.562;7.262;2022-09-14T14:45:41;21.20;99.90
25550;DHT22;13444;50.562;7.262;2022-09-14T14:48:09;21.10;99.90
25550;DHT22;13444;50.562;7.262;2022-09-14T14:50:36;21.00;99.90
25550;DHT22;13444;50.562;7.262;2022-09-14T14:53:02;20.80;99.90
25550;DHT22;13444;50.562;7.262;2022-09-14T14:55:30;20.70;99.90
25550;DHT22;13444;50.562;7.262;2022-09-14T14:58:02;20.60;99.90
25550;DHT22;13444;50.562;7.262;2022-09-14T15:00:31;20.50;99.90
25550;DHT22;13444;50.562;7.262;2022-09-14T15:02:57;20.40;99.90
25550;DHT22;13444;50.562;7.262;2022-09-14T15:05:23;20.40;99.90
25550;DHT22;13444;50.562;7.262;2022-09-14T15:07:49;20.30;99.90
25550;DHT22;13444;50.562;7.262;2022-09-14T15:10:18;20.30;99.90
25550;DHT22;13444;50.562;7.262;2022-09-14T15:12:44;20.20;99.90
25550;DHT22;13444;50.562;7.262;2022-09-14T15:15:14;20.20;99.90
25550;DHT22;13444;50.562;7.262;2022-09-14T15:17:40;20.00;99.90
25550;DHT22;13444;50.562;7.262;2022-09-14T15:20:06;19.80;99.90
25550;DHT22;13444;50.562;7.262;2022-09-14T15:22:32;19.80;99.90
25550;DHT22;13444;50.562;7.262;2022-09-14T15:24:57;19.80;99.90
25550;DHT22;13444;50.562;7.262;2022-09-14T15:27:22;19.70;99.90
25550;DHT22;13444;50.562;7.262;2022-09-14T15:29:48;19.70;99.90
25550;DHT22;13444;50.562;7.262;2022-09-14T15:32:13;19.60;99.90
25550;DHT22;13444;50.562;7.262;2022-09-14T15:34:39;19.60;99.90
25550;DHT22;13444;50.562;7.262;2022-09-14T15:37:05;19.50;99.90
25550;DHT22;13444;50.562;7.262;2022-09-14T15:39:31;19.50;99.90
25550;DHT22;13444;50.562;7.262;2022-09-14T15:41:57;19.50;99.90
25550;DHT22;13444;50.562;7.262;2022-09-14T15:44:23;19.40;99.90
25550;DHT22;13444;50.562;7.262;2022-09-14T15:46:49;19.50;99.90
25550;DHT22;13444;50.562;7.262;2022-09-14T15:49:18;19.50;99.90
25550;DHT22;13444;50.562;7.262;2022-09-14T15:51:45;19.50;99.90
25550;DHT22;13444;50.562;7.262;2022-09-14T15:54:11;19.40;99.90
25550;DHT22;13444;50.562;7.262;2022-09-14T15:56:37;19.40;99.90
25550;DHT22;13444;50.562;7.262;2022-09-14T15:59:04;19.30;99.90
25550;DHT22;13444;50.562;7.262;2022-09-14T16:01:30;19.30;99.90
25550;DHT22;13444;50.562;7.262;2022-09-14T16:04:03;19.20;99.90
25550;DHT22;13444;50.562;7.262;2022-09-14T16:06:29;19.10;99.90
25550;DHT22;13444;50.562;7.262;2022-09-14T16:08:55;18.90;99.90
25550;DHT22;13444;50.562;7.262;2022-09-14T16:11:22;18.90;99.90
25550;DHT22;13444;50.562;7.262;2022-09-14T16:13:49;18.90;99.90
25550;DHT22;13444;50.562;7.262;2022-09-14T16:16:15;18.90;99.90
25550;DHT22;13444;50.562;7.262;2022-09-14T16:18:41;18.90;99.90
25550;DHT22;13444;50.562;7.262;2022-09-14T16:21:21;18.90;99.90
25550;DHT22;13444;50.562;7.262;2022-09-14T16:23:56;18.90;99.90
25550;DHT22;13444;50.562;7.262;2022-09-14T16:26:25;18.80;99.90
25550;DHT22;13444;50.562;7.262;2022-09-14T16:28:52;18.80;99.90
25550;DHT22;13444;50.562;7.262;2022-09-14T16:31:25;18.80;99.90
25550;DHT22;13444;50.562;7.262;2022-09-14T16:33:52;18.80;99.90
25550;DHT22;13444;50.562;7.262;2022-09-14T16:36:25;18.80;99.90
25550;DHT22;13444;50.562;7.262;2022-09-14T16:38:52;18.80;99.90
25550;DHT22;13444;50.562;7.262;2022-09-14T16:41:17;18.80;99.90
25550;DHT22;13444;50.562;7.262;2022-09-14T16:43:43;18.80;99.90
25550;DHT22;13444;50.562;7.262;2022-09-14T16:46:10;18.80;99.90
25550;DHT22;13444;50.562;7.262;2022-09-14T16:48:43;18.80;99.90
25550;DHT22;13444;50.562;7.262;2022-09-14T16:51:10;18.80;99.90
25550;DHT22;13444;50.562;7.262;2022-09-14T16:53:38;18.90;99.90
25550;DHT22;13444;50.562;7.262;2022-09-14T16:56:09;18.90;99.90
25550;DHT22;13444;50.562;7.262;2022-09-14T16:58:36;18.90;99.90
25550;DHT22;13444;50.562;7.262;2022-09-14T17:01:05;18.80;99.90
25550;DHT22;13444;50.562;7.262;2022-09-14T17:03:32;18.80;99.90
25550;DHT22;13444;50.562;7.262;2022-09-14T17:06:10;18.70;99.90
25550;DHT22;13444;50.562;7.262;2022-09-14T17:08:36;18.70;99.90
25550;DHT22;13444;50.562;7.262;2022-09-14T17:11:03;18.60;99.90
25550;DHT22;13444;50.562;7.262;2022-09-14T17:13:29;18.60;99.90
25550;DHT22;13444;50.562;7.262;2022-09-14T17:16:06;18.50;99.90
25550;DHT22;13444;50.562;7.262;2022-09-14T17:18:32;18.60;99.90
25550;DHT22;13444;50.562;7.262;2022-09-14T17:21:03;18.60;99.90
25550;DHT22;13444;50.562;7.262;2022-09-14T17:23:29;18.80;99.90
25550;DHT22;13444;50.562;7.262;2022-09-14T17:25:55;19.00;99.90
25550;DHT22;13444;50.562;7.262;2022-09-14T17:28:24;19.10;99.90
25550;DHT22;13444;50.562;7.262;2022-09-14T17:30:51;19.20;99.90
25550;DHT22;13444;50.562;7.262;2022-09-14T17:33:17;19.30;99.90
25550;DHT22;13444;50.562;7.262;2022-09-14T17:35:47;19.30;99.90
25550;DHT22;13444;50.562;7.262;2022-09-14T17:38:14;19.40;99.90
25550;DHT22;13444;50.562;7.262;2022-09-14T17:40:39;19.50;99.90
25550;DHT22;13444;50.562;7.262;2022-09-14T17:43:05;19.50;99.90
25550;DHT22;13444;50.562;7.262;2022-09-14T17:45:30;19.60;99.90
25550;DHT22;13444;50.562;7.262;2022-09-14T17:47:56;19.60;99.90
25550;DHT22;13444;50.562;7.262;2022-09-14T17:50:21;19.60;99.90
25550;DHT22;13444;50.562;7.262;2022-09-14T17:52:48;19.60;99.90